Juneau International Airport


Codes: PAJN/JNU
Name: Juneau International Airport
City: Juneau
Country: United States
Elevation: 21 ft.
Wikipedia:

Photos at Juneau International Airport


   Photos courtesy of SpottingLog. You can add your own sightings and photos by signing up for a free trial today.



No photos found.

Weather at Juneau International Airport


Time (UTC)DescriptionTempratureWindCloud coverageVisibilityPressureHumidity
13-Jun-2024 03:00Light Rain12°C2 mph, SE92%10000m1022hPa64%
13-Jun-2024 06:00Light Rain10°C2 mph, SE90%10000m1022hPa78%
13-Jun-2024 09:00Overcast Clouds8°C2 mph, NE99%10000m1023hPa86%
13-Jun-2024 12:00Overcast Clouds7°C2 mph, NE99%10000m1022hPa84%
13-Jun-2024 15:00Overcast Clouds9°C2 mph, N100%10000m1021hPa80%
13-Jun-2024 18:00Overcast Clouds11°C2 mph, NW100%10000m1020hPa74%
13-Jun-2024 21:00Light Rain10°C2 mph, N100%9691m1019hPa78%
14-Jun-2024 00:00Light Rain11°C2 mph, NW100%10000m1018hPa76%
14-Jun-2024 03:00Overcast Clouds11°C2 mph, NW100%10000m1017hPa78%
14-Jun-2024 06:00Light Rain9°C2 mph, N100%10000m1017hPa90%
14-Jun-2024 09:00Light Rain8°C2 mph, E100%5148m1017hPa95%
14-Jun-2024 12:00Moderate Rain7°C2 mph, NE100%8411m1017hPa96%
14-Jun-2024 15:00Moderate Rain8°C2 mph, NE100%10000m1017hPa94%
14-Jun-2024 18:00Overcast Clouds9°C2 mph, NW100%10000m1018hPa89%
14-Jun-2024 21:00Overcast Clouds11°C4 mph, NW97%10000m1019hPa82%
15-Jun-2024 00:00Overcast Clouds12°C4 mph, NW91%10000m1019hPa76%
15-Jun-2024 03:00Overcast Clouds11°C4 mph, NW90%10000m1019hPa81%
15-Jun-2024 06:00Broken Clouds8°C2 mph, N64%10000m1020hPa90%
15-Jun-2024 09:00Scattered Clouds7°C2 mph, N36%10000m1019hPa87%
15-Jun-2024 12:00Broken Clouds7°C2 mph, NE55%10000m1018hPa86%
15-Jun-2024 15:00Broken Clouds10°C2 mph, N73%10000m1018hPa80%
15-Jun-2024 18:00Broken Clouds13°C2 mph, N70%10000m1018hPa73%
15-Jun-2024 21:00Broken Clouds15°C2 mph, NW84%10000m1018hPa69%
16-Jun-2024 00:00Broken Clouds16°C2 mph, NW68%10000m1018hPa69%
16-Jun-2024 03:00Scattered Clouds15°C0 mph, NW41%10000m1019hPa74%
16-Jun-2024 06:00Scattered Clouds11°C2 mph, NE39%10000m1020hPa86%
16-Jun-2024 09:00Scattered Clouds10°C2 mph, NE50%10000m1020hPa88%
16-Jun-2024 12:00Scattered Clouds10°C2 mph, NE48%10000m1020hPa88%
16-Jun-2024 15:00Scattered Clouds12°C2 mph, NW50%10000m1020hPa82%
16-Jun-2024 18:00Broken Clouds15°C2 mph, NW56%10000m1018hPa76%
16-Jun-2024 21:00Broken Clouds16°C2 mph, NW74%10000m1018hPa72%
17-Jun-2024 00:00Broken Clouds17°C2 mph, NW60%10000m1016hPa71%
17-Jun-2024 03:00Scattered Clouds15°C2 mph, NW42%10000m1016hPa78%
17-Jun-2024 06:00Scattered Clouds11°C2 mph, NE45%10000m1016hPa93%
17-Jun-2024 09:00Scattered Clouds11°C2 mph, NE42%10000m1015hPa93%
17-Jun-2024 12:00Scattered Clouds10°C2 mph, N31%10000m1015hPa90%
17-Jun-2024 15:00Scattered Clouds12°C2 mph, NW25%10000m1014hPa87%
17-Jun-2024 18:00Scattered Clouds15°C2 mph, NW27%10000m1014hPa78%
17-Jun-2024 21:00Scattered Clouds17°C2 mph, W37%10000m1013hPa69%
18-Jun-2024 00:00Scattered Clouds17°C2 mph, W34%10000m1012hPa66%